Time;durP1;ratioP1;P1;durP2;ratioP2;P2;SDS_P1;SDS_P2;PMS_P1;PMS_P2;Temp;Humidity;BMP_temperature;BMP_pressure;BME280_temperature;BME280_humidity;BME280_pressure;Samples;Min_cycle;Max_cycle;Signal;HPM_P1;HPM_P2
2021/04/25 00:01:06;;;;;;;;;;;19.60;58.50;;;;;;5073810;28;1922;-70
2021/04/25 00:03:32;;;;;;;;;;;19.60;58.50;;;;;;5056473;28;1373;-72
2021/04/25 00:05:57;;;;;;;;;;;19.60;58.50;;;;;;5074453;28;1380;-71
2021/04/25 00:08:23;;;;;;;;;;;19.60;58.60;;;;;;5074417;28;1548;-71
2021/04/25 00:10:48;;;;;;;;;;;19.60;58.60;;;;;;5074505;28;1280;-72
2021/04/25 00:13:14;;;;;;;;;;;19.60;58.60;;;;;;5074554;28;1372;-71
2021/04/25 00:15:39;;;;;;;;;;;19.60;59.20;;;;;;5055908;28;1439;-72
2021/04/25 00:18:04;;;;;;;;;;;19.60;58.60;;;;;;5074060;28;1643;-72
2021/04/25 00:20:30;;;;;;;;;;;19.60;58.60;;;;;;5073784;28;1960;-71
2021/04/25 00:22:55;;;;;;;;;;;19.60;58.60;;;;;;5073205;28;1380;-70
2021/04/25 00:25:21;;;;;;;;;;;19.60;58.60;;;;;;5072623;28;1452;-73
2021/04/25 00:27:46;;;;;;;;;;;19.60;58.60;;;;;;5073829;28;1051;-71
2021/04/25 00:30:13;;;;;;;;;;;19.60;58.60;;;;;;5056093;28;1385;-70
2021/04/25 00:32:39;;;;;;;;;;;19.60;58.70;;;;;;5056329;28;1666;-70
2021/04/25 00:35:05;;;;;;;;;;;19.60;58.70;;;;;;5056131;28;1372;-71
2021/04/25 00:37:30;;;;;;;;;;;19.60;58.70;;;;;;5056091;28;1312;-70
2021/04/25 00:39:56;;;;;;;;;;;19.60;58.70;;;;;;5055789;28;1898;-71
2021/04/25 00:42:21;;;;;;;;;;;19.50;58.70;;;;;;5056103;28;1671;-71
2021/04/25 00:44:47;;;;;;;;;;;19.50;58.70;;;;;;5073031;28;1458;-71
2021/04/25 00:47:12;;;;;;;;;;;19.50;58.70;;;;;;5054542;28;1453;-70
2021/04/25 00:49:38;;;;;;;;;;;19.50;58.70;;;;;;5055498;28;1362;-71
2021/04/25 00:52:03;;;;;;;;;;;19.50;58.70;;;;;;5055678;28;1421;-71
2021/04/25 00:54:29;;;;;;;;;;;19.50;58.70;;;;;;5073700;28;1463;-71
2021/04/25 00:56:54;;;;;;;;;;;19.50;58.80;;;;;;5055598;28;1375;-70
2021/04/25 00:59:19;;;;;;;;;;;19.50;58.70;;;;;;5055504;28;1967;-70
2021/04/25 01:01:45;;;;;;;;;;;19.50;58.70;;;;;;5073378;28;1674;-70
2021/04/25 01:04:10;;;;;;;;;;;19.50;58.70;;;;;;5073129;28;1128;-71
2021/04/25 01:06:36;;;;;;;;;;;19.50;58.80;;;;;;5072041;28;801;-70
2021/04/25 01:09:01;;;;;;;;;;;19.50;58.80;;;;;;5073027;28;1342;-70
2021/04/25 01:11:27;;;;;;;;;;;19.50;58.80;;;;;;5073308;28;1732;-71
2021/04/25 01:13:52;;;;;;;;;;;19.50;58.80;;;;;;5054806;28;1598;-70
2021/04/25 01:16:18;;;;;;;;;;;19.50;58.80;;;;;;5073160;28;1623;-71
2021/04/25 01:18:43;;;;;;;;;;;19.50;58.80;;;;;;5073364;28;1456;-71
2021/04/25 01:21:09;;;;;;;;;;;19.50;58.80;;;;;;5055295;28;1890;-70
2021/04/25 01:23:34;;;;;;;;;;;19.50;58.80;;;;;;5054708;28;1697;-71
2021/04/25 01:26:00;;;;;;;;;;;19.50;58.80;;;;;;5072150;28;1266;-70
2021/04/25 01:28:25;;;;;;;;;;;19.50;58.80;;;;;;5054321;28;1483;-70
2021/04/25 01:30:51;;;;;;;;;;;19.50;58.80;;;;;;5073251;28;1372;-70
2021/04/25 01:33:16;;;;;;;;;;;19.40;58.80;;;;;;5073032;28;1432;-70
2021/04/25 01:35:41;;;;;;;;;;;19.40;58.80;;;;;;5054806;28;1072;-70
2021/04/25 01:38:07;;;;;;;;;;;19.40;58.80;;;;;;5072899;28;1500;-69
2021/04/25 01:40:32;;;;;;;;;;;19.50;58.80;;;;;;5072983;28;1914;-71
2021/04/25 01:42:59;;;;;;;;;;;19.50;58.80;;;;;;5072705;28;1338;-71
2021/04/25 01:45:25;;;;;;;;;;;19.50;58.80;;;;;;5053788;28;1627;-71
2021/04/25 01:47:51;;;;;;;;;;;19.50;58.80;;;;;;5054531;28;1035;-71
2021/04/25 01:50:16;;;;;;;;;;;19.50;58.80;;;;;;5054556;28;1649;-71
2021/04/25 01:52:42;;;;;;;;;;;19.50;58.70;;;;;;5072693;28;1430;-70
2021/04/25 01:55:08;;;;;;;;;;;19.50;58.70;;;;;;5072710;28;1435;-71
2021/04/25 01:57:33;;;;;;;;;;;19.50;58.70;;;;;;5072553;28;1274;-70
2021/04/25 01:59:59;;;;;;;;;;;19.50;58.60;;;;;;5054810;28;1939;-70
2021/04/25 02:02:25;;;;;;;;;;;19.50;58.60;;;;;;5046549;28;1366;-71
2021/04/25 02:04:50;;;;;;;;;;;19.50;58.60;;;;;;5054771;28;1609;-71
2021/04/25 02:07:16;;;;;;;;;;;19.50;58.60;;;;;;5053920;28;1566;-70
2021/04/25 02:09:41;;;;;;;;;;;19.50;58.60;;;;;;5072290;28;1699;-71
2021/04/25 02:12:06;;;;;;;;;;;19.60;58.60;;;;;;5054129;28;1479;-71
2021/04/25 02:14:32;;;;;;;;;;;19.60;58.60;;;;;;5058092;28;1412;-71
2021/04/25 02:16:57;;;;;;;;;;;19.60;58.50;;;;;;5076524;28;1371;-71
2021/04/25 02:19:23;;;;;;;;;;;19.60;58.50;;;;;;5058666;28;1894;-71
2021/04/25 02:21:48;;;;;;;;;;;19.60;58.50;;;;;;5064767;28;1224;-71
2021/04/25 02:24:14;;;;;;;;;;;19.60;58.50;;;;;;5073449;28;1441;-71
2021/04/25 02:26:39;;;;;;;;;;;19.60;58.50;;;;;;5075722;28;1309;-71
2021/04/25 02:29:04;;;;;;;;;;;19.60;58.50;;;;;;5075876;28;1131;-71
2021/04/25 02:31:30;;;;;;;;;;;19.60;58.50;;;;;;5058412;28;1722;-71
2021/04/25 02:33:55;;;;;;;;;;;19.60;58.50;;;;;;5058435;28;1320;-71
2021/04/25 02:36:21;;;;;;;;;;;19.60;58.40;;;;;;5075986;28;1103;-71
2021/04/25 02:38:46;;;;;;;;;;;19.60;58.40;;;;;;5076155;28;1230;-71
2021/04/25 02:41:12;;;;;;;;;;;19.60;58.40;;;;;;5058363;28;1902;-71
2021/04/25 02:43:37;;;;;;;;;;;19.60;58.40;;;;;;5076282;28;1449;-71
2021/04/25 02:46:02;;;;;;;;;;;19.60;58.30;;;;;;5075872;28;1059;-71
2021/04/25 02:48:28;;;;;;;;;;;19.60;58.30;;;;;;5041086;28;1185;-71
2021/04/25 02:50:53;;;;;;;;;;;19.70;58.30;;;;;;5075539;28;1302;-71
2021/04/25 02:53:19;;;;;;;;;;;19.70;58.20;;;;;;5058279;28;1331;-71
2021/04/25 02:55:44;;;;;;;;;;;19.80;58.10;;;;;;5075605;28;1071;-71
2021/04/25 02:58:10;;;;;;;;;;;19.90;57.90;;;;;;5075859;28;1074;-71
2021/04/25 03:00:35;;;;;;;;;;;20.00;57.70;;;;;;5075686;28;1918;-71
2021/04/25 03:03:01;;;;;;;;;;;20.10;57.50;;;;;;5075787;28;1107;-71
2021/04/25 03:05:26;;;;;;;;;;;20.20;57.30;;;;;;5075362;28;1063;-71
2021/04/25 03:07:52;;;;;;;;;;;20.30;57.10;;;;;;5075846;28;1131;-71
2021/04/25 03:10:17;;;;;;;;;;;20.40;56.90;;;;;;5057667;28;1270;-72
2021/04/25 03:12:43;;;;;;;;;;;20.40;56.70;;;;;;5057825;28;1126;-71
2021/04/25 03:15:09;;;;;;;;;;;20.50;56.50;;;;;;5075425;28;1095;-71
2021/04/25 03:17:34;;;;;;;;;;;20.50;56.30;;;;;;5057659;28;1112;-71
2021/04/25 03:20:00;;;;;;;;;;;20.60;56.30;;;;;;5075563;28;1909;-72
2021/04/25 03:22:25;;;;;;;;;;;20.70;56.20;;;;;;5075462;28;1122;-71
2021/04/25 03:24:50;;;;;;;;;;;20.70;56.10;;;;;;5074282;28;1123;-71
2021/04/25 03:27:16;;;;;;;;;;;20.80;55.90;;;;;;5075303;28;1240;-71
2021/04/25 03:29:41;;;;;;;;;;;20.80;55.80;;;;;;5075141;28;1289;-71
2021/04/25 03:32:07;;;;;;;;;;;20.80;55.70;;;;;;5075361;28;1115;-71
2021/04/25 03:34:32;;;;;;;;;;;20.90;55.70;;;;;;5074986;28;1086;-71
2021/04/25 03:36:58;;;;;;;;;;;20.90;55.60;;;;;;5075043;28;1063;-71
2021/04/25 03:39:23;;;;;;;;;;;21.00;55.50;;;;;;5075179;28;1178;-72
2021/04/25 03:41:48;;;;;;;;;;;21.00;55.50;;;;;;5057079;28;1890;-71
2021/04/25 03:44:14;;;;;;;;;;;21.00;55.40;;;;;;5075037;28;1142;-71
2021/04/25 03:46:42;;;;;;;;;;;21.00;55.30;;;;;;5074892;28;1083;-71
2021/04/25 03:49:08;;;;;;;;;;;21.10;55.40;;;;;;5056958;28;1146;-71
2021/04/25 03:51:34;;;;;;;;;;;21.10;55.30;;;;;;5056866;28;1205;-71
2021/04/25 03:53:59;;;;;;;;;;;21.10;55.30;;;;;;5074666;28;1052;-72
2021/04/25 03:56:25;;;;;;;;;;;21.10;55.30;;;;;;5074613;28;1067;-71
2021/04/25 03:58:50;;;;;;;;;;;21.10;55.30;;;;;;5074729;28;1158;-71
2021/04/25 04:01:15;;;;;;;;;;;21.20;55.20;;;;;;5074716;28;1898;-71
2021/04/25 04:03:41;;;;;;;;;;;21.20;55.20;;;;;;5074424;28;1099;-71
2021/04/25 04:06:06;;;;;;;;;;;21.10;55.20;;;;;;5074369;28;1110;-71
2021/04/25 04:08:32;;;;;;;;;;;21.20;55.30;;;;;;5056593;28;1076;-72
2021/04/25 04:10:57;;;;;;;;;;;21.20;55.30;;;;;;5056531;28;1227;-71
2021/04/25 04:13:22;;;;;;;;;;;21.10;55.30;;;;;;5056216;28;1111;-71
2021/04/25 04:15:48;;;;;;;;;;;21.10;55.30;;;;;;5074163;28;1173;-71
2021/04/25 04:18:13;;;;;;;;;;;21.10;55.30;;;;;;5074166;28;1199;-71
2021/04/25 04:20:39;;;;;;;;;;;21.10;55.40;;;;;;5074165;28;1898;-71
2021/04/25 04:23:04;;;;;;;;;;;21.10;55.40;;;;;;5074228;28;1154;-71
2021/04/25 04:25:30;;;;;;;;;;;21.10;55.40;;;;;;5073994;28;1092;-71
2021/04/25 04:27:55;;;;;;;;;;;21.10;55.40;;;;;;5056266;28;1052;-71
2021/04/25 04:30:21;;;;;;;;;;;21.00;55.40;;;;;;5074070;28;1216;-71
2021/04/25 04:32:47;;;;;;;;;;;21.10;55.60;;;;;;5073879;28;1130;-71
2021/04/25 04:35:12;;;;;;;;;;;21.00;55.50;;;;;;5073580;28;1067;-70
2021/04/25 04:37:38;;;;;;;;;;;21.00;55.60;;;;;;5073862;28;1122;-70
2021/04/25 04:40:04;;;;;;;;;;;21.00;55.60;;;;;;5073722;28;1953;-70
2021/04/25 04:42:29;;;;;;;;;;;21.00;55.60;;;;;;5074238;28;1075;-70
2021/04/25 04:44:54;;;;;;;;;;;21.00;55.70;;;;;;5073708;28;1194;-70
2021/04/25 04:47:20;;;;;;;;;;;20.90;55.70;;;;;;5073411;28;1170;-70
2021/04/25 04:49:45;;;;;;;;;;;20.90;55.70;;;;;;5073504;28;1217;-70
2021/04/25 04:52:11;;;;;;;;;;;21.00;55.80;;;;;;5073846;28;1079;-70
2021/04/25 04:54:37;;;;;;;;;;;20.90;55.80;;;;;;5073508;28;1190;-70
2021/04/25 04:57:02;;;;;;;;;;;20.90;55.90;;;;;;5073600;28;1052;-70
2021/04/25 04:59:28;;;;;;;;;;;20.90;55.90;;;;;;5073396;28;1201;-71
2021/04/25 05:01:53;;;;;;;;;;;20.90;56.00;;;;;;5055528;28;1982;-70
2021/04/25 05:04:18;;;;;;;;;;;20.90;56.00;;;;;;5073588;28;1047;-70
2021/04/25 05:06:44;;;;;;;;;;;20.80;56.00;;;;;;5073217;28;1166;-71
2021/04/25 05:09:09;;;;;;;;;;;20.80;56.10;;;;;;5055471;28;1136;-70
2021/04/25 05:11:35;;;;;;;;;;;20.80;56.10;;;;;;5055789;28;1187;-70
2021/04/25 05:14:01;;;;;;;;;;;20.80;56.10;;;;;;5066782;28;1111;-70
2021/04/25 05:16:27;;;;;;;;;;;20.80;56.20;;;;;;5066158;28;1055;-70
2021/04/25 05:18:52;;;;;;;;;;;20.80;56.20;;;;;;5055130;28;1398;-70
2021/04/25 05:21:17;;;;;;;;;;;20.80;56.20;;;;;;5073171;28;1973;-70
2021/04/25 05:23:43;;;;;;;;;;;20.80;56.20;;;;;;5073030;28;1064;-71
2021/04/25 05:26:08;;;;;;;;;;;20.80;56.20;;;;;;5072918;28;1080;-70
2021/04/25 05:28:34;;;;;;;;;;;20.80;56.20;;;;;;5073046;28;1149;-70
2021/04/25 05:31:00;;;;;;;;;;;20.80;56.80;;;;;;5073085;28;1361;-70
2021/04/25 05:33:26;;;;;;;;;;;20.80;56.20;;;;;;5072855;28;1079;-70
2021/04/25 05:35:52;;;;;;;;;;;20.80;56.20;;;;;;5072921;28;1283;-70
2021/04/25 05:38:17;;;;;;;;;;;20.80;56.20;;;;;;5054920;28;1159;-71
2021/04/25 05:40:42;;;;;;;;;;;20.80;56.20;;;;;;5072952;28;1906;-70
2021/04/25 05:43:08;;;;;;;;;;;20.80;56.30;;;;;;5073335;28;1154;-70
2021/04/25 05:45:34;;;;;;;;;;;20.70;56.20;;;;;;5037966;28;1076;-70
2021/04/25 05:47:59;;;;;;;;;;;20.70;56.20;;;;;;5071969;28;1082;-71
2021/04/25 05:50:26;;;;;;;;;;;20.70;56.20;;;;;;5066746;22;2065;-64
2021/04/25 05:52:52;;;;;;;;;;;20.70;56.30;;;;;;5035934;28;1601;-64
2021/04/25 05:55:17;;;;;;;;;;;20.80;56.30;;;;;;5027128;28;1074;-66
2021/04/25 05:57:43;;;;;;;;;;;20.70;56.30;;;;;;5052812;28;1171;-63
2021/04/25 06:00:09;;;;;;;;;;;20.70;56.30;;;;;;5052594;28;1915;-65
2021/04/25 06:02:35;;;;;;;;;;;20.70;56.40;;;;;;5034683;28;1341;-64
2021/04/25 06:05:00;;;;;;;;;;;20.70;56.40;;;;;;5034683;28;1329;-65
2021/04/25 06:07:26;;;;;;;;;;;20.70;56.40;;;;;;5038972;28;1214;-64
2021/04/25 06:09:51;;;;;;;;;;;20.70;56.40;;;;;;5034820;28;1085;-64
2021/04/25 06:12:17;;;;;;;;;;;20.70;56.50;;;;;;5052530;28;1203;-64
2021/04/25 06:14:42;;;;;;;;;;;20.70;56.50;;;;;;5034730;28;1179;-64
2021/04/25 06:17:07;;;;;;;;;;;20.70;56.50;;;;;;5052062;28;1123;-64
2021/04/25 06:19:33;;;;;;;;;;;20.70;56.50;;;;;;5052383;28;1898;-64
2021/04/25 06:21:58;;;;;;;;;;;20.60;56.50;;;;;;5034592;28;1260;-64
2021/04/25 06:24:24;;;;;;;;;;;20.60;56.60;;;;;;5052617;28;1044;-64
2021/04/25 06:26:49;;;;;;;;;;;20.60;56.60;;;;;;5052162;28;1128;-65
2021/04/25 06:29:15;;;;;;;;;;;20.60;56.60;;;;;;5051556;28;1148;-64
2021/04/25 06:31:40;;;;;;;;;;;20.60;56.70;;;;;;5052176;28;1260;-64
2021/04/25 06:34:05;;;;;;;;;;;20.60;56.70;;;;;;5052499;28;1077;-64
2021/04/25 06:36:31;;;;;;;;;;;20.60;56.70;;;;;;5052167;28;1183;-64
2021/04/25 06:38:56;;;;;;;;;;;20.60;56.80;;;;;;5042708;28;1819;-64
2021/04/25 06:41:22;;;;;;;;;;;20.50;56.80;;;;;;5052991;28;1953;-64
2021/04/25 06:43:47;;;;;;;;;;;20.50;56.80;;;;;;5068204;28;1246;-63
2021/04/25 06:46:13;;;;;;;;;;;20.50;56.80;;;;;;5051755;28;1144;-63
2021/04/25 06:48:38;;;;;;;;;;;20.50;56.80;;;;;;5051271;28;1145;-63
2021/04/25 06:51:04;;;;;;;;;;;20.50;56.80;;;;;;5051850;28;1259;-63
2021/04/25 06:53:29;;;;;;;;;;;20.50;56.90;;;;;;5052060;28;1049;-63
2021/04/25 06:55:55;;;;;;;;;;;20.50;56.90;;;;;;5034090;28;1160;-64
2021/04/25 06:58:20;;;;;;;;;;;20.50;56.90;;;;;;5051948;28;1092;-64
2021/04/25 07:00:46;;;;;;;;;;;20.50;56.90;;;;;;5055992;28;1976;-64
2021/04/25 07:03:11;;;;;;;;;;;20.50;57.00;;;;;;5036659;28;1273;-65
2021/04/25 07:05:38;;;;;;;;;;;20.40;57.00;;;;;;5037551;28;1088;-64
2021/04/25 07:08:04;;;;;;;;;;;20.40;57.00;;;;;;5055796;28;1124;-64
2021/04/25 07:10:29;;;;;;;;;;;20.40;57.00;;;;;;5055791;28;1266;-64
2021/04/25 07:12:55;;;;;;;;;;;20.40;57.00;;;;;;5055709;28;1073;-64
2021/04/25 07:15:20;;;;;;;;;;;20.40;57.00;;;;;;5054913;28;1119;-63
2021/04/25 07:17:46;;;;;;;;;;;20.40;57.10;;;;;;5055582;28;1056;-63
2021/04/25 07:20:11;;;;;;;;;;;20.40;57.10;;;;;;5055191;28;1906;-64
2021/04/25 07:22:37;;;;;;;;;;;20.40;57.10;;;;;;5055297;28;1080;-64
2021/04/25 07:25:03;;;;;;;;;;;20.40;57.10;;;;;;5055316;28;1179;-63
2021/04/25 07:27:28;;;;;;;;;;;20.40;57.10;;;;;;5017390;28;1137;-64
2021/04/25 07:29:53;;;;;;;;;;;20.40;57.10;;;;;;5051977;28;1053;-64
2021/04/25 07:32:19;;;;;;;;;;;20.40;57.10;;;;;;5055219;28;1270;-63
2021/04/25 07:34:45;;;;;;;;;;;20.40;57.20;;;;;;5055089;28;1172;-64
2021/04/25 07:37:10;;;;;;;;;;;20.30;57.10;;;;;;5054947;28;1083;-64
2021/04/25 07:39:36;;;;;;;;;;;20.30;57.10;;;;;;5037137;28;1970;-64
2021/04/25 07:42:01;;;;;;;;;;;20.30;57.10;;;;;;5037342;28;1264;-64
2021/04/25 07:44:27;;;;;;;;;;;20.30;57.20;;;;;;5054853;28;1096;-63
2021/04/25 07:46:52;;;;;;;;;;;20.30;57.20;;;;;;5054783;28;1072;-64
2021/04/25 07:49:18;;;;;;;;;;;20.30;57.20;;;;;;5036840;28;1249;-64
2021/04/25 07:51:43;;;;;;;;;;;20.30;57.20;;;;;;5037147;28;1272;-64
2021/04/25 07:54:09;;;;;;;;;;;20.30;57.20;;;;;;5054724;28;1127;-64
2021/04/25 07:56:34;;;;;;;;;;;20.30;57.20;;;;;;5054788;28;1068;-65
2021/04/25 07:59:00;;;;;;;;;;;20.30;57.30;;;;;;5054471;28;1104;-64
2021/04/25 08:01:27;;;;;;;;;;;20.30;57.30;;;;;;5054576;28;1902;-64
2021/04/25 08:03:52;;;;;;;;;;;20.30;57.30;;;;;;5054646;28;1195;-63
2021/04/25 08:06:18;;;;;;;;;;;20.30;57.30;;;;;;5054414;28;1174;-64
2021/04/25 08:08:43;;;;;;;;;;;20.30;57.30;;;;;;5054496;28;1128;-65
2021/04/25 08:11:09;;;;;;;;;;;20.20;57.30;;;;;;5054023;28;1216;-64
2021/04/25 08:13:34;;;;;;;;;;;20.20;57.30;;;;;;5054335;28;1068;-64
2021/04/25 08:15:59;;;;;;;;;;;20.20;57.40;;;;;;5054138;28;1120;-64
2021/04/25 08:18:25;;;;;;;;;;;20.20;57.40;;;;;;5054281;28;1138;-64
2021/04/25 08:20:50;;;;;;;;;;;20.30;57.50;;;;;;5054353;28;1906;-64
2021/04/25 08:23:16;;;;;;;;;;;20.20;57.50;;;;;;5036435;28;1139;-64
2021/04/25 08:25:41;;;;;;;;;;;20.20;57.40;;;;;;5036035;28;1112;-64
2021/04/25 08:28:07;;;;;;;;;;;20.20;57.40;;;;;;5054166;28;1134;-64
2021/04/25 08:30:34;;;;;;;;;;;20.20;57.50;;;;;;5054332;28;1219;-64
2021/04/25 08:32:59;;;;;;;;;;;20.20;57.50;;;;;;5054091;28;1183;-65
2021/04/25 08:35:25;;;;;;;;;;;20.20;57.50;;;;;;5053763;28;1116;-64
2021/04/25 08:37:50;;;;;;;;;;;20.20;57.50;;;;;;5055287;28;1322;-64
2021/04/25 08:40:16;;;;;;;;;;;20.20;57.50;;;;;;5059546;28;1903;-65
2021/04/25 08:42:42;;;;;;;;;;;20.20;57.60;;;;;;5053879;28;1111;-64
2021/04/25 08:45:08;;;;;;;;;;;20.20;57.60;;;;;;5032041;28;1144;-63
2021/04/25 08:47:37;;;;;;;;;;;20.20;57.60;;;;;;5053628;28;1096;-63
2021/04/25 08:50:04;;;;;;;;;;;20.20;57.60;;;;;;5035903;28;1689;-63
2021/04/25 08:52:29;;;;;;;;;;;20.10;57.60;;;;;;5053427;28;1060;-65
2021/04/25 08:54:55;;;;;;;;;;;20.10;57.60;;;;;;5035984;28;1140;-64
2021/04/25 08:57:21;;;;;;;;;;;20.10;57.60;;;;;;5035508;28;1060;-64
2021/04/25 08:59:47;;;;;;;;;;;20.10;57.60;;;;;;5053130;28;1898;-63
2021/04/25 09:02:12;;;;;;;;;;;20.10;57.60;;;;;;5051556;28;1764;-63
2021/04/25 09:04:37;;;;;;;;;;;20.10;57.60;;;;;;5056355;28;1065;-63
2021/04/25 09:07:09;;;;;;;;;;;20.10;57.60;;;;;;5065930;28;1178;-65
2021/04/25 09:10:00;;;;;;;;;;;20.10;57.70;;;;;;5053489;28;1112;-63
2021/04/25 09:12:36;;;;;;;;;;;20.10;57.70;;;;;;5049373;28;1164;-64
2021/04/25 09:15:03;;;;;;;;;;;20.10;57.70;;;;;;5035477;28;1294;-64
2021/04/25 09:17:33;;;;;;;;;;;20.10;57.70;;;;;;5053030;28;1147;-63
2021/04/25 09:19:59;;;;;;;;;;;20.10;57.70;;;;;;5035345;28;1902;-64
2021/04/25 09:22:40;;;;;;;;;;;20.10;57.70;;;;;;5034557;28;1279;-63
2021/04/25 09:25:06;;;;;;;;;;;20.10;57.70;;;;;;5053379;28;1080;-65
2021/04/25 09:27:32;;;;;;;;;;;20.10;57.70;;;;;;5053081;28;1111;-63
2021/04/25 09:29:58;;;;;;;;;;;20.10;57.70;;;;;;5053087;28;1112;-63
2021/04/25 09:32:24;;;;;;;;;;;20.10;57.70;;;;;;5053044;28;1225;-64
2021/04/25 09:34:50;;;;;;;;;;;20.10;57.80;;;;;;5052741;28;1075;-64
2021/04/25 09:37:16;;;;;;;;;;;20.10;57.70;;;;;;5035122;28;1088;-64
2021/04/25 09:39:57;;;;;;;;;;;20.10;57.80;;;;;;5052770;28;1894;-64
2021/04/25 09:42:26;;;;;;;;;;;20.10;57.80;;;;;;5035270;28;1323;-63
2021/04/25 09:44:51;;;;;;;;;;;20.10;57.80;;;;;;5035266;28;1061;-64
2021/04/25 09:47:17;;;;;;;;;;;20.10;57.80;;;;;;5052499;28;1143;-64
2021/04/25 09:49:46;;;;;;;;;;;20.10;57.80;;;;;;5034809;28;1085;-63
2021/04/25 09:52:12;;;;;;;;;;;20.10;57.90;;;;;;5052704;28;1266;-64
2021/04/25 09:54:38;;;;;;;;;;;20.10;57.90;;;;;;5052805;28;1065;-63
2021/04/25 09:57:03;;;;;;;;;;;20.00;57.80;;;;;;5052400;28;1056;-64
2021/04/25 09:59:29;;;;;;;;;;;20.10;57.90;;;;;;5052780;28;1076;-63
2021/04/25 10:02:07;;;;;;;;;;;20.10;57.90;;;;;;5052295;28;1902;-64
2021/04/25 10:04:36;;;;;;;;;;;20.00;57.80;;;;;;5052666;28;1123;-63
2021/04/25 10:07:03;;;;;;;;;;;20.00;57.80;;;;;;5034493;28;1159;-64
2021/04/25 10:09:29;;;;;;;;;;;20.00;57.80;;;;;;5052594;28;1076;-64
2021/04/25 10:11:56;;;;;;;;;;;20.00;57.80;;;;;;5052586;28;1377;-64
2021/04/25 10:14:21;;;;;;;;;;;20.10;57.90;;;;;;5052467;28;1065;-63
2021/04/25 10:16:46;;;;;;;;;;;20.00;57.80;;;;;;5052373;28;1064;-64
2021/04/25 10:19:12;;;;;;;;;;;20.00;57.80;;;;;;5052537;28;1130;-66
2021/04/25 10:21:38;;;;;;;;;;;20.00;57.90;;;;;;5034551;28;1898;-63
2021/04/25 10:24:04;;;;;;;;;;;20.00;57.90;;;;;;5035038;28;1104;-64
2021/04/25 10:26:30;;;;;;;;;;;20.00;57.80;;;;;;5052040;28;1087;-64
2021/04/25 10:28:56;;;;;;;;;;;20.00;57.90;;;;;;5034669;28;1076;-64
2021/04/25 10:31:39;;;;;;;;;;;20.00;57.90;;;;;;5034358;28;1279;-64
2021/04/25 10:34:06;;;;;;;;;;;20.00;57.90;;;;;;5036035;28;1188;-63
2021/04/25 10:36:47;;;;;;;;;;;20.00;57.90;;;;;;5055885;28;1053;-64
2021/04/25 10:39:47;;;;;;;;;;;20.00;57.90;;;;;;5056264;28;1049;-64
2021/04/25 10:42:23;;;;;;;;;;;20.00;57.80;;;;;;5003753;28;1354;-63
2021/04/25 10:44:58;;;;;;;;;;;20.00;57.90;;;;;;5038047;28;1164;-63
2021/04/25 10:47:23;;;;;;;;;;;20.00;57.90;;;;;;5055810;28;1080;-64
2021/04/25 10:49:49;;;;;;;;;;;20.00;57.90;;;;;;5056049;28;1045;-64
2021/04/25 10:52:21;;;;;;;;;;;20.00;57.90;;;;;;5037978;28;1290;-63
2021/04/25 10:55:05;;;;;;;;;;;20.00;57.90;;;;;;5056008;28;1072;-63
2021/04/25 10:57:30;;;;;;;;;;;20.00;57.90;;;;;;5055892;28;1222;-63
2021/04/25 11:00:07;;;;;;;;;;;20.00;57.90;;;;;;5038053;28;1909;-64
2021/04/25 11:02:45;;;;;;;;;;;20.00;57.90;;;;;;5037646;28;1362;-63
2021/04/25 11:05:11;;;;;;;;;;;20.00;57.90;;;;;;5055375;28;1115;-67
2021/04/25 11:07:38;;;;;;;;;;;20.00;57.90;;;;;;5055699;28;1116;-63
2021/04/25 11:10:04;;;;;;;;;;;20.00;57.90;;;;;;5055462;28;1290;-63
2021/04/25 11:12:36;;;;;;;;;;;20.00;57.90;;;;;;5037914;28;1187;-64
2021/04/25 11:15:01;;;;;;;;;;;20.00;57.90;;;;;;5037251;28;1101;-63
2021/04/25 11:17:30;;;;;;;;;;;20.00;57.90;;;;;;5037691;28;1159;-63
2021/04/25 11:19:56;;;;;;;;;;;20.00;57.90;;;;;;5055479;28;1910;-63
2021/04/25 11:22:40;;;;;;;;;;;20.00;57.90;;;;;;5055604;28;1315;-63
2021/04/25 11:25:23;;;;;;;;;;;20.00;57.90;;;;;;5055284;28;1033;-65
2021/04/25 11:27:49;;;;;;;;;;;20.00;57.90;;;;;;5055492;28;1104;-64
2021/04/25 11:30:14;;;;;;;;;;;20.00;57.90;;;;;;5055180;28;1296;-65
2021/04/25 11:32:40;;;;;;;;;;;20.00;57.90;;;;;;5037444;28;1313;-67
2021/04/25 11:35:08;;;;;;;;;;;20.00;57.90;;;;;;5055046;28;1203;-66
2021/04/25 11:37:33;;;;;;;;;;;20.00;57.90;;;;;;5037845;28;1148;-66
2021/04/25 11:39:59;;;;;;;;;;;20.00;57.90;;;;;;5054882;28;1953;-65
2021/04/25 11:42:39;;;;;;;;;;;20.00;57.90;;;;;;5037304;28;1267;-65
2021/04/25 11:45:12;;;;;;;;;;;20.00;57.90;;;;;;5036795;28;1139;-66
2021/04/25 11:47:51;;;;;;;;;;;20.00;58.00;;;;;;5054955;28;1265;-66
2021/04/25 11:50:18;;;;;;;;;;;20.00;58.00;;;;;;5054861;28;1370;-66
2021/04/25 11:52:43;;;;;;;;;;;20.00;57.90;;;;;;5087931;22;3661;-70
2021/04/25 11:55:10;;;;;;;;;;;20.00;57.90;;;;;;5072775;28;1005;-69
2021/04/25 11:57:39;;;;;;;;;;;20.00;57.90;;;;;;5056405;28;1092;-69
2021/04/25 12:00:09;;;;;;;;;;;20.00;58.00;;;;;;5056150;28;1901;-69
2021/04/25 12:02:38;;;;;;;;;;;19.90;57.90;;;;;;5074208;28;1278;-69
2021/04/25 12:05:05;;;;;;;;;;;19.90;57.90;;;;;;5056086;28;1151;-69
2021/04/25 12:07:34;;;;;;;;;;;19.90;57.90;;;;;;5053795;28;1240;-71
2021/04/25 12:09:59;;;;;;;;;;;20.00;58.00;;;;;;5036885;28;1053;-69
2021/04/25 12:12:25;;;;;;;;;;;19.90;58.00;;;;;;5034183;28;1896;-70
2021/04/25 12:15:00;;;;;;;;;;;19.90;58.00;;;;;;5034160;28;1014;-71
2021/04/25 12:17:26;;;;;;;;;;;19.90;58.00;;;;;;5020848;28;1231;-71
2021/04/25 12:19:51;;;;;;;;;;;19.90;58.00;;;;;;5047065;28;1961;-71
2021/04/25 12:22:17;;;;;;;;;;;19.90;58.00;;;;;;5048483;28;1145;-72
2021/04/25 12:24:42;;;;;;;;;;;19.90;58.00;;;;;;5052346;28;1196;-71
2021/04/25 12:27:09;;;;;;;;;;;19.90;58.10;;;;;;5035299;28;1085;-70
2021/04/25 12:29:38;;;;;;;;;;;19.90;58.10;;;;;;5053733;28;1115;-70
2021/04/25 12:32:03;;;;;;;;;;;19.90;58.10;;;;;;5035820;28;1321;-70
2021/04/25 12:34:31;;;;;;;;;;;19.90;58.10;;;;;;5036012;28;1189;-71
2021/04/25 12:36:58;;;;;;;;;;;19.90;58.10;;;;;;5035516;28;1089;-70
2021/04/25 12:39:24;;;;;;;;;;;19.80;58.10;;;;;;5053214;28;1045;-71
2021/04/25 12:41:50;;;;;;;;;;;19.90;58.10;;;;;;5053432;28;1956;-70
2021/04/25 12:44:17;;;;;;;;;;;19.90;58.20;;;;;;5035945;28;1060;-70
2021/04/25 12:46:55;;;;;;;;;;;19.90;58.20;;;;;;5029965;28;1065;-71
2021/04/25 12:49:21;;;;;;;;;;;19.80;58.20;;;;;;5044409;28;936;-70
2021/04/25 12:51:47;;;;;;;;;;;19.80;58.10;;;;;;5054099;28;1241;-69
2021/04/25 12:54:13;;;;;;;;;;;19.80;58.00;;;;;;5029588;28;1079;-70
2021/04/25 12:56:44;;;;;;;;;;;19.80;58.00;;;;;;5033212;28;1155;-70
2021/04/25 12:59:17;;;;;;;;;;;19.90;58.00;;;;;;5050425;28;1255;-71
2021/04/25 13:01:44;;;;;;;;;;;20.00;57.90;;;;;;5054326;28;1902;-70
2021/04/25 13:04:28;;;;;;;;;;;20.10;57.90;;;;;;5053748;28;1190;-70
2021/04/25 13:07:12;;;;;;;;;;;20.10;57.70;;;;;;5056966;28;1236;-70
2021/04/25 13:09:38;;;;;;;;;;;20.20;57.50;;;;;;5051885;28;1068;-70
2021/04/25 13:12:23;;;;;;;;;;;20.30;57.30;;;;;;5052183;28;1306;-70
2021/04/25 13:14:49;;;;;;;;;;;20.40;57.20;;;;;;5050839;28;1179;-70
2021/04/25 13:17:22;;;;;;;;;;;20.40;56.90;;;;;;5032818;28;1084;-71
2021/04/25 13:19:47;;;;;;;;;;;20.50;56.80;;;;;;5051854;28;1056;-70
2021/04/25 13:22:12;;;;;;;;;;;20.60;56.60;;;;;;5036431;28;1910;-70
2021/04/25 13:24:38;;;;;;;;;;;20.60;56.50;;;;;;5052680;28;1068;-70
2021/04/25 13:27:03;;;;;;;;;;;20.70;56.40;;;;;;5034001;28;1151;-71
2021/04/25 13:29:29;;;;;;;;;;;20.70;56.90;;;;;;5052840;28;1073;-70
2021/04/25 13:31:54;;;;;;;;;;;20.70;56.20;;;;;;5052635;28;1219;-69
2021/04/25 13:34:20;;;;;;;;;;;20.80;56.10;;;;;;5052159;28;1103;-70
2021/04/25 13:36:45;;;;;;;;;;;20.80;56.00;;;;;;5034123;28;1072;-71
2021/04/25 13:39:11;;;;;;;;;;;20.90;56.00;;;;;;5052609;28;1155;-70
2021/04/25 13:41:41;;;;;;;;;;;20.90;55.90;;;;;;5052350;28;1903;-69
2021/04/25 13:44:07;;;;;;;;;;;20.90;55.80;;;;;;5052620;28;1119;-69
2021/04/25 13:46:32;;;;;;;;;;;20.90;55.80;;;;;;5033884;28;1017;-69
2021/04/25 13:48:58;;;;;;;;;;;21.00;55.80;;;;;;5033899;28;1156;-69
2021/04/25 13:51:23;;;;;;;;;;;21.00;55.80;;;;;;5052261;28;1376;-69
2021/04/25 13:53:49;;;;;;;;;;;21.00;55.40;;;;;;5051026;28;1119;-69
2021/04/25 13:56:14;;;;;;;;;;;20.90;54.80;;;;;;5051699;28;1057;-70
2021/04/25 13:58:40;;;;;;;;;;;20.90;54.90;;;;;;5051055;28;1107;-69
2021/04/25 14:01:05;;;;;;;;;;;21.00;55.00;;;;;;5052184;28;1914;-68
2021/04/25 14:03:31;;;;;;;;;;;21.00;55.10;;;;;;5036162;28;1119;-70
2021/04/25 14:05:56;;;;;;;;;;;21.00;55.10;;;;;;5049236;28;1035;-69
2021/04/25 14:08:22;;;;;;;;;;;21.00;55.20;;;;;;5052328;28;1056;-70
2021/04/25 14:10:47;;;;;;;;;;;21.10;55.20;;;;;;5057886;28;1318;-69
2021/04/25 14:13:13;;;;;;;;;;;21.10;55.20;;;;;;5056112;28;990;-69
2021/04/25 14:15:38;;;;;;;;;;;21.10;55.20;;;;;;5057167;28;1076;-70
2021/04/25 14:18:04;;;;;;;;;;;21.10;55.20;;;;;;5057002;28;1072;-70
2021/04/25 14:20:30;;;;;;;;;;;21.10;55.20;;;;;;5057717;28;1977;-70
2021/04/25 14:22:56;;;;;;;;;;;21.20;55.20;;;;;;5047081;28;1338;-69
2021/04/25 14:25:21;;;;;;;;;;;21.20;55.20;;;;;;5055648;28;1267;-69
2021/04/25 14:27:47;;;;;;;;;;;21.20;55.10;;;;;;5057504;28;1156;-68